In Rescue
 
Open Full Screen Window  High Contrast Mode
Wind Gusting 00 knots
05
July 13, 2020 11:04 PM CDT
Weather Information
Wind Direction
  240 °
Wind Speed
  05 kt (6 mph)
Wind Gust
  00 kt (0 mph)
Altimeter
29.70 in
Visibility
10 SM
Temperature
19° C
66° F
Dewpoint
19° C
66° F
Humidity
100%
1hr Rain Fall
00.00 in.
24hr Rain Fall
00.62 in.
Sky Condition
Scattered @ 4,900 ft
VFR

METAR KHCO 140404Z AUTO 24005KT 10SM SCT049 19/19 A2970 RMK AO2

FAA Disclaimer: The data displayed is for advisory purposes only and is not to be used for flight planning or operations.